sensor_id;sensor_type;location;lat;lon;timestamp;temperature;humidity
75430;DHT22;64127;51.488;5.462;2023-11-21T00:00:20;9.10;99.90
75430;DHT22;64127;51.488;5.462;2023-11-21T00:02:52;9.10;99.90
75430;DHT22;64127;51.488;5.462;2023-11-21T00:05:24;9.10;99.90
75430;DHT22;64127;51.488;5.462;2023-11-21T00:07:56;9.10;99.90
75430;DHT22;64127;51.488;5.462;2023-11-21T00:10:28;9.10;99.90
75430;DHT22;64127;51.488;5.462;2023-11-21T00:13:00;9.10;99.90
75430;DHT22;64127;51.488;5.462;2023-11-21T00:15:34;9.10;99.90
75430;DHT22;64127;51.488;5.462;2023-11-21T00:18:06;9.10;99.90
75430;DHT22;64127;51.488;5.462;2023-11-21T00:20:38;9.10;99.90
75430;DHT22;64127;51.488;5.462;2023-11-21T00:23:10;9.10;99.90
75430;DHT22;64127;51.488;5.462;2023-11-21T00:25:42;9.10;99.90
75430;DHT22;64127;51.488;5.462;2023-11-21T00:28:14;9.10;99.90
75430;DHT22;64127;51.488;5.462;2023-11-21T00:30:47;9.10;99.90
75430;DHT22;64127;51.488;5.462;2023-11-21T00:33:19;9.10;99.90
75430;DHT22;64127;51.488;5.462;2023-11-21T00:35:51;9.10;99.90
75430;DHT22;64127;51.488;5.462;2023-11-21T00:38:23;9.10;99.90
75430;DHT22;64127;51.488;5.462;2023-11-21T00:40:56;9.00;99.90
75430;DHT22;64127;51.488;5.462;2023-11-21T00:43:28;9.10;99.90
75430;DHT22;64127;51.488;5.462;2023-11-21T00:46:04;9.00;99.90
75430;DHT22;64127;51.488;5.462;2023-11-21T00:48:39;9.00;99.90
75430;DHT22;64127;51.488;5.462;2023-11-21T00:51:11;9.00;99.90
75430;DHT22;64127;51.488;5.462;2023-11-21T00:53:43;8.90;99.90
75430;DHT22;64127;51.488;5.462;2023-11-21T00:56:14;8.90;99.90
75430;DHT22;64127;51.488;5.462;2023-11-21T00:58:46;8.90;99.90
75430;DHT22;64127;51.488;5.462;2023-11-21T01:01:22;8.90;99.90
75430;DHT22;64127;51.488;5.462;2023-11-21T01:03:55;8.80;99.90
75430;DHT22;64127;51.488;5.462;2023-11-21T01:06:27;8.80;99.90
75430;DHT22;64127;51.488;5.462;2023-11-21T01:08:59;8.80;99.90
75430;DHT22;64127;51.488;5.462;2023-11-21T01:11:31;8.80;99.90
75430;DHT22;64127;51.488;5.462;2023-11-21T01:14:04;8.80;99.90
75430;DHT22;64127;51.488;5.462;2023-11-21T01:16:37;8.70;99.90
75430;DHT22;64127;51.488;5.462;2023-11-21T01:19:10;8.70;99.90
75430;DHT22;64127;51.488;5.462;2023-11-21T01:21:42;8.70;99.90
75430;DHT22;64127;51.488;5.462;2023-11-21T01:24:14;8.60;99.90
75430;DHT22;64127;51.488;5.462;2023-11-21T01:26:46;8.60;99.90
75430;DHT22;64127;51.488;5.462;2023-11-21T01:29:18;8.50;99.90
75430;DHT22;64127;51.488;5.462;2023-11-21T01:31:50;8.60;99.90
75430;DHT22;64127;51.488;5.462;2023-11-21T01:34:23;8.50;99.90
75430;DHT22;64127;51.488;5.462;2023-11-21T01:36:55;8.50;99.90
75430;DHT22;64127;51.488;5.462;2023-11-21T01:39:28;8.40;99.90
75430;DHT22;64127;51.488;5.462;2023-11-21T01:41:59;8.40;99.90
75430;DHT22;64127;51.488;5.462;2023-11-21T01:44:31;8.40;99.90
75430;DHT22;64127;51.488;5.462;2023-11-21T01:47:05;8.40;99.90
75430;DHT22;64127;51.488;5.462;2023-11-21T01:49:37;8.30;99.90
75430;DHT22;64127;51.488;5.462;2023-11-21T01:52:10;8.30;99.90
75430;DHT22;64127;51.488;5.462;2023-11-21T01:54:42;8.30;99.90
75430;DHT22;64127;51.488;5.462;2023-11-21T01:57:14;8.30;99.90
75430;DHT22;64127;51.488;5.462;2023-11-21T01:59:49;8.30;99.90
75430;DHT22;64127;51.488;5.462;2023-11-21T02:02:22;8.30;99.90
75430;DHT22;64127;51.488;5.462;2023-11-21T02:04:54;8.30;99.90
75430;DHT22;64127;51.488;5.462;2023-11-21T02:07:26;8.30;99.90
75430;DHT22;64127;51.488;5.462;2023-11-21T02:09:59;8.30;99.90
75430;DHT22;64127;51.488;5.462;2023-11-21T02:12:31;8.30;99.90
75430;DHT22;64127;51.488;5.462;2023-11-21T02:15:03;8.30;99.90
75430;DHT22;64127;51.488;5.462;2023-11-21T02:17:47;8.30;99.90
75430;DHT22;64127;51.488;5.462;2023-11-21T02:20:24;8.30;99.90
75430;DHT22;64127;51.488;5.462;2023-11-21T02:22:58;8.30;99.90
75430;DHT22;64127;51.488;5.462;2023-11-21T02:25:32;8.30;99.90
75430;DHT22;64127;51.488;5.462;2023-11-21T02:28:06;8.20;99.90
75430;DHT22;64127;51.488;5.462;2023-11-21T02:30:38;8.20;99.90
75430;DHT22;64127;51.488;5.462;2023-11-21T02:33:10;8.20;99.90
75430;DHT22;64127;51.488;5.462;2023-11-21T02:35:44;8.20;99.90
75430;DHT22;64127;51.488;5.462;2023-11-21T02:38:16;8.20;99.90
75430;DHT22;64127;51.488;5.462;2023-11-21T02:40:48;8.20;99.90
75430;DHT22;64127;51.488;5.462;2023-11-21T02:43:21;8.20;99.90
75430;DHT22;64127;51.488;5.462;2023-11-21T02:45:53;8.20;99.90
75430;DHT22;64127;51.488;5.462;2023-11-21T02:48:25;8.10;99.90
75430;DHT22;64127;51.488;5.462;2023-11-21T02:50:57;8.10;99.90
75430;DHT22;64127;51.488;5.462;2023-11-21T02:53:29;8.10;99.90
75430;DHT22;64127;51.488;5.462;2023-11-21T02:56:01;8.10;99.90
75430;DHT22;64127;51.488;5.462;2023-11-21T02:58:33;8.10;99.90
75430;DHT22;64127;51.488;5.462;2023-11-21T03:01:05;8.10;99.90
75430;DHT22;64127;51.488;5.462;2023-11-21T03:03:38;8.10;99.90
75430;DHT22;64127;51.488;5.462;2023-11-21T03:06:11;8.10;99.90
75430;DHT22;64127;51.488;5.462;2023-11-21T03:08:44;8.10;99.90
75430;DHT22;64127;51.488;5.462;2023-11-21T03:11:16;8.10;99.90
75430;DHT22;64127;51.488;5.462;2023-11-21T03:13:48;8.10;99.90
75430;DHT22;64127;51.488;5.462;2023-11-21T03:16:20;8.10;99.90
75430;DHT22;64127;51.488;5.462;2023-11-21T03:18:52;8.10;99.90
75430;DHT22;64127;51.488;5.462;2023-11-21T03:21:25;8.10;99.90
75430;DHT22;64127;51.488;5.462;2023-11-21T03:23:58;8.10;99.90
75430;DHT22;64127;51.488;5.462;2023-11-21T03:26:31;8.10;99.90
75430;DHT22;64127;51.488;5.462;2023-11-21T03:29:03;8.10;99.90
75430;DHT22;64127;51.488;5.462;2023-11-21T03:31:36;8.10;99.90
75430;DHT22;64127;51.488;5.462;2023-11-21T03:34:14;8.20;99.90
75430;DHT22;64127;51.488;5.462;2023-11-21T03:36:47;8.20;99.90
75430;DHT22;64127;51.488;5.462;2023-11-21T03:39:20;8.20;99.90
75430;DHT22;64127;51.488;5.462;2023-11-21T03:41:52;8.20;99.90
75430;DHT22;64127;51.488;5.462;2023-11-21T03:44:24;8.10;99.90
75430;DHT22;64127;51.488;5.462;2023-11-21T03:46:56;8.20;99.90
75430;DHT22;64127;51.488;5.462;2023-11-21T03:49:29;8.10;99.90
75430;DHT22;64127;51.488;5.462;2023-11-21T03:52:01;8.10;99.90
75430;DHT22;64127;51.488;5.462;2023-11-21T03:54:35;8.10;99.90
75430;DHT22;64127;51.488;5.462;2023-11-21T03:57:07;8.10;99.90
75430;DHT22;64127;51.488;5.462;2023-11-21T03:59:41;8.10;99.90
75430;DHT22;64127;51.488;5.462;2023-11-21T04:02:13;8.10;99.90
75430;DHT22;64127;51.488;5.462;2023-11-21T04:04:46;8.20;99.90
75430;DHT22;64127;51.488;5.462;2023-11-21T04:07:18;8.10;99.90
75430;DHT22;64127;51.488;5.462;2023-11-21T04:09:50;8.10;99.90
75430;DHT22;64127;51.488;5.462;2023-11-21T04:12:23;8.10;99.90
75430;DHT22;64127;51.488;5.462;2023-11-21T04:14:55;8.10;99.90
75430;DHT22;64127;51.488;5.462;2023-11-21T04:17:27;8.10;99.90
75430;DHT22;64127;51.488;5.462;2023-11-21T04:19:59;8.00;99.90
75430;DHT22;64127;51.488;5.462;2023-11-21T04:22:31;8.00;99.90
75430;DHT22;64127;51.488;5.462;2023-11-21T04:25:03;8.00;99.90
75430;DHT22;64127;51.488;5.462;2023-11-21T04:27:35;8.00;99.90
75430;DHT22;64127;51.488;5.462;2023-11-21T04:30:08;8.00;99.90
75430;DHT22;64127;51.488;5.462;2023-11-21T04:32:41;8.00;99.90
75430;DHT22;64127;51.488;5.462;2023-11-21T04:35:14;8.00;99.90
75430;DHT22;64127;51.488;5.462;2023-11-21T04:37:46;8.00;99.90
75430;DHT22;64127;51.488;5.462;2023-11-21T04:40:19;8.00;99.90
75430;DHT22;64127;51.488;5.462;2023-11-21T04:42:52;8.00;99.90
75430;DHT22;64127;51.488;5.462;2023-11-21T04:45:24;8.00;99.90
75430;DHT22;64127;51.488;5.462;2023-11-21T04:47:56;8.00;99.90
75430;DHT22;64127;51.488;5.462;2023-11-21T04:50:29;8.00;99.90
75430;DHT22;64127;51.488;5.462;2023-11-21T04:53:01;8.00;99.90
75430;DHT22;64127;51.488;5.462;2023-11-21T04:55:33;8.00;99.90
75430;DHT22;64127;51.488;5.462;2023-11-21T04:58:05;7.90;99.90
75430;DHT22;64127;51.488;5.462;2023-11-21T05:00:37;8.00;99.90
75430;DHT22;64127;51.488;5.462;2023-11-21T05:03:09;7.90;99.90
75430;DHT22;64127;51.488;5.462;2023-11-21T05:05:42;8.00;99.90
75430;DHT22;64127;51.488;5.462;2023-11-21T05:08:14;8.00;99.90
75430;DHT22;64127;51.488;5.462;2023-11-21T05:10:46;8.00;99.90
75430;DHT22;64127;51.488;5.462;2023-11-21T05:13:18;8.00;99.90
75430;DHT22;64127;51.488;5.462;2023-11-21T05:15:50;8.10;99.90
75430;DHT22;64127;51.488;5.462;2023-11-21T05:18:22;8.10;99.90
75430;DHT22;64127;51.488;5.462;2023-11-21T05:20:55;8.10;99.90
75430;DHT22;64127;51.488;5.462;2023-11-21T05:23:27;8.10;99.90
75430;DHT22;64127;51.488;5.462;2023-11-21T05:25:59;8.10;99.90
75430;DHT22;64127;51.488;5.462;2023-11-21T05:28:31;8.20;99.90
75430;DHT22;64127;51.488;5.462;2023-11-21T05:31:04;8.20;99.90
75430;DHT22;64127;51.488;5.462;2023-11-21T05:33:47;8.20;99.90
75430;DHT22;64127;51.488;5.462;2023-11-21T05:36:19;8.20;99.90
75430;DHT22;64127;51.488;5.462;2023-11-21T05:38:51;8.30;99.90
75430;DHT22;64127;51.488;5.462;2023-11-21T05:41:23;8.30;99.90
75430;DHT22;64127;51.488;5.462;2023-11-21T05:43:55;8.30;99.90
75430;DHT22;64127;51.488;5.462;2023-11-21T05:46:27;8.30;99.90
75430;DHT22;64127;51.488;5.462;2023-11-21T05:48:59;8.30;99.90
75430;DHT22;64127;51.488;5.462;2023-11-21T05:51:31;8.30;99.90
75430;DHT22;64127;51.488;5.462;2023-11-21T05:54:03;8.30;99.90
75430;DHT22;64127;51.488;5.462;2023-11-21T05:56:36;8.30;99.90
75430;DHT22;64127;51.488;5.462;2023-11-21T05:59:08;8.30;99.90
75430;DHT22;64127;51.488;5.462;2023-11-21T06:01:40;8.30;99.90
75430;DHT22;64127;51.488;5.462;2023-11-21T06:04:13;8.30;99.90
75430;DHT22;64127;51.488;5.462;2023-11-21T06:06:45;8.30;99.90
75430;DHT22;64127;51.488;5.462;2023-11-21T06:09:17;8.30;99.90
75430;DHT22;64127;51.488;5.462;2023-11-21T06:11:49;8.30;99.90
75430;DHT22;64127;51.488;5.462;2023-11-21T06:14:21;8.30;99.90
75430;DHT22;64127;51.488;5.462;2023-11-21T06:16:53;8.30;99.90
75430;DHT22;64127;51.488;5.462;2023-11-21T06:19:27;8.20;99.90
75430;DHT22;64127;51.488;5.462;2023-11-21T06:21:59;8.30;99.90
75430;DHT22;64127;51.488;5.462;2023-11-21T06:24:33;8.30;99.90
75430;DHT22;64127;51.488;5.462;2023-11-21T06:27:05;8.30;99.90
75430;DHT22;64127;51.488;5.462;2023-11-21T06:29:37;8.30;99.90
75430;DHT22;64127;51.488;5.462;2023-11-21T06:32:10;8.30;99.90
75430;DHT22;64127;51.488;5.462;2023-11-21T06:34:42;8.30;99.90
75430;DHT22;64127;51.488;5.462;2023-11-21T06:37:14;8.30;99.90
75430;DHT22;64127;51.488;5.462;2023-11-21T06:39:47;8.40;99.90
75430;DHT22;64127;51.488;5.462;2023-11-21T06:42:19;8.30;99.90
75430;DHT22;64127;51.488;5.462;2023-11-21T06:44:51;8.30;99.90
75430;DHT22;64127;51.488;5.462;2023-11-21T06:47:25;8.40;99.90
75430;DHT22;64127;51.488;5.462;2023-11-21T06:49:58;8.40;99.90
75430;DHT22;64127;51.488;5.462;2023-11-21T06:52:32;8.40;99.90
75430;DHT22;64127;51.488;5.462;2023-11-21T06:55:04;8.40;99.90
75430;DHT22;64127;51.488;5.462;2023-11-21T06:57:39;8.30;99.90
75430;DHT22;64127;51.488;5.462;2023-11-21T07:00:12;8.40;99.90
75430;DHT22;64127;51.488;5.462;2023-11-21T07:02:45;8.30;99.90
75430;DHT22;64127;51.488;5.462;2023-11-21T07:05:17;8.40;99.90
75430;DHT22;64127;51.488;5.462;2023-11-21T07:07:53;8.40;99.90
75430;DHT22;64127;51.488;5.462;2023-11-21T07:10:26;8.40;99.90
75430;DHT22;64127;51.488;5.462;2023-11-21T07:12:58;8.40;99.90
75430;DHT22;64127;51.488;5.462;2023-11-21T07:15:30;8.40;99.90
75430;DHT22;64127;51.488;5.462;2023-11-21T07:18:02;8.40;99.90
75430;DHT22;64127;51.488;5.462;2023-11-21T07:20:34;8.40;99.90
75430;DHT22;64127;51.488;5.462;2023-11-21T07:23:06;8.40;99.90
75430;DHT22;64127;51.488;5.462;2023-11-21T07:25:38;8.50;99.90
75430;DHT22;64127;51.488;5.462;2023-11-21T07:28:10;8.50;99.90
75430;DHT22;64127;51.488;5.462;2023-11-21T07:30:42;8.60;99.90
75430;DHT22;64127;51.488;5.462;2023-11-21T07:33:14;8.50;99.90
75430;DHT22;64127;51.488;5.462;2023-11-21T07:35:46;8.60;99.90
75430;DHT22;64127;51.488;5.462;2023-11-21T07:38:18;8.60;99.90
75430;DHT22;64127;51.488;5.462;2023-11-21T07:40:50;8.60;99.90
75430;DHT22;64127;51.488;5.462;2023-11-21T07:43:22;8.60;99.90
75430;DHT22;64127;51.488;5.462;2023-11-21T07:45:54;8.60;99.90
75430;DHT22;64127;51.488;5.462;2023-11-21T07:48:26;8.70;99.90
75430;DHT22;64127;51.488;5.462;2023-11-21T07:50:59;8.70;99.90
75430;DHT22;64127;51.488;5.462;2023-11-21T07:53:32;8.70;99.90
75430;DHT22;64127;51.488;5.462;2023-11-21T07:56:08;8.70;99.90
75430;DHT22;64127;51.488;5.462;2023-11-21T07:58:41;8.70;99.90
75430;DHT22;64127;51.488;5.462;2023-11-21T08:01:13;8.70;99.90
75430;DHT22;64127;51.488;5.462;2023-11-21T08:03:45;8.80;99.90
75430;DHT22;64127;51.488;5.462;2023-11-21T08:06:17;8.80;99.90
75430;DHT22;64127;51.488;5.462;2023-11-21T08:08:49;8.80;99.90
75430;DHT22;64127;51.488;5.462;2023-11-21T08:11:21;8.80;99.90
75430;DHT22;64127;51.488;5.462;2023-11-21T08:13:54;8.80;99.90
75430;DHT22;64127;51.488;5.462;2023-11-21T08:16:26;8.80;99.90
75430;DHT22;64127;51.488;5.462;2023-11-21T08:18:59;8.90;99.90
75430;DHT22;64127;51.488;5.462;2023-11-21T08:21:31;8.90;99.90
75430;DHT22;64127;51.488;5.462;2023-11-21T08:24:03;8.90;99.90
75430;DHT22;64127;51.488;5.462;2023-11-21T08:26:39;8.90;99.90
75430;DHT22;64127;51.488;5.462;2023-11-21T08:29:11;8.90;99.90
75430;DHT22;64127;51.488;5.462;2023-11-21T08:31:43;8.90;99.90
75430;DHT22;64127;51.488;5.462;2023-11-21T08:34:18;9.00;99.90
75430;DHT22;64127;51.488;5.462;2023-11-21T08:36:50;9.00;99.90
75430;DHT22;64127;51.488;5.462;2023-11-21T08:39:22;9.00;99.90
75430;DHT22;64127;51.488;5.462;2023-11-21T08:41:56;9.00;99.90
75430;DHT22;64127;51.488;5.462;2023-11-21T08:44:29;9.00;99.90
75430;DHT22;64127;51.488;5.462;2023-11-21T08:47:02;9.10;99.90
75430;DHT22;64127;51.488;5.462;2023-11-21T08:49:39;9.10;99.90
75430;DHT22;64127;51.488;5.462;2023-11-21T08:52:11;9.10;99.90
75430;DHT22;64127;51.488;5.462;2023-11-21T08:54:44;9.20;99.90
75430;DHT22;64127;51.488;5.462;2023-11-21T08:57:17;9.20;99.90
75430;DHT22;64127;51.488;5.462;2023-11-21T08:59:49;9.20;99.90
75430;DHT22;64127;51.488;5.462;2023-11-21T09:02:26;9.20;99.90
75430;DHT22;64127;51.488;5.462;2023-11-21T09:04:59;9.20;99.90
75430;DHT22;64127;51.488;5.462;2023-11-21T09:07:31;9.20;99.90
75430;DHT22;64127;51.488;5.462;2023-11-21T09:10:04;9.30;99.90
75430;DHT22;64127;51.488;5.462;2023-11-21T09:12:39;9.30;99.90
75430;DHT22;64127;51.488;5.462;2023-11-21T09:15:11;9.30;99.90
75430;DHT22;64127;51.488;5.462;2023-11-21T09:17:43;9.30;99.90
75430;DHT22;64127;51.488;5.462;2023-11-21T09:20:16;9.30;99.90
75430;DHT22;64127;51.488;5.462;2023-11-21T09:22:49;9.40;99.90
75430;DHT22;64127;51.488;5.462;2023-11-21T09:25:21;9.40;99.90
75430;DHT22;64127;51.488;5.462;2023-11-21T09:27:54;9.40;99.90
75430;DHT22;64127;51.488;5.462;2023-11-21T09:30:26;9.40;99.90
75430;DHT22;64127;51.488;5.462;2023-11-21T09:32:58;9.50;99.90
75430;DHT22;64127;51.488;5.462;2023-11-21T09:35:31;9.50;99.90
75430;DHT22;64127;51.488;5.462;2023-11-21T09:38:03;9.60;99.90
75430;DHT22;64127;51.488;5.462;2023-11-21T09:40:41;9.60;99.90
75430;DHT22;64127;51.488;5.462;2023-11-21T09:43:17;9.60;99.90
75430;DHT22;64127;51.488;5.462;2023-11-21T09:46:10;9.60;99.90
75430;DHT22;64127;51.488;5.462;2023-11-21T09:48:50;9.70;99.90
75430;DHT22;64127;51.488;5.462;2023-11-21T09:51:27;9.60;99.90
75430;DHT22;64127;51.488;5.462;2023-11-21T09:54:03;9.70;99.90
75430;DHT22;64127;51.488;5.462;2023-11-21T09:56:40;9.70;99.90
75430;DHT22;64127;51.488;5.462;2023-11-21T09:59:15;9.80;99.90
75430;DHT22;64127;51.488;5.462;2023-11-21T10:01:47;9.80;99.90
75430;DHT22;64127;51.488;5.462;2023-11-21T10:04:19;9.80;99.90
75430;DHT22;64127;51.488;5.462;2023-11-21T10:06:53;9.80;99.90
75430;DHT22;64127;51.488;5.462;2023-11-21T10:09:26;9.80;99.90
75430;DHT22;64127;51.488;5.462;2023-11-21T10:11:59;9.90;99.90
75430;DHT22;64127;51.488;5.462;2023-11-21T10:14:33;9.90;99.90
75430;DHT22;64127;51.488;5.462;2023-11-21T10:17:12;10.00;99.90
75430;DHT22;64127;51.488;5.462;2023-11-21T10:19:48;10.00;99.90
75430;DHT22;64127;51.488;5.462;2023-11-21T10:22:20;10.10;99.90
75430;DHT22;64127;51.488;5.462;2023-11-21T10:24:55;10.10;99.90
75430;DHT22;64127;51.488;5.462;2023-11-21T10:27:27;10.20;99.90
75430;DHT22;64127;51.488;5.462;2023-11-21T10:30:03;10.20;99.90
75430;DHT22;64127;51.488;5.462;2023-11-21T10:32:36;10.20;99.90
75430;DHT22;64127;51.488;5.462;2023-11-21T10:35:08;10.30;99.90
75430;DHT22;64127;51.488;5.462;2023-11-21T10:37:43;10.30;99.90
75430;DHT22;64127;51.488;5.462;2023-11-21T10:40:16;10.30;99.90
75430;DHT22;64127;51.488;5.462;2023-11-21T10:42:48;10.40;99.90
75430;DHT22;64127;51.488;5.462;2023-11-21T10:45:20;10.40;99.90
75430;DHT22;64127;51.488;5.462;2023-11-21T10:47:54;10.40;99.90
75430;DHT22;64127;51.488;5.462;2023-11-21T10:50:26;10.50;99.90
75430;DHT22;64127;51.488;5.462;2023-11-21T10:52:58;10.50;99.90
75430;DHT22;64127;51.488;5.462;2023-11-21T10:55:32;10.50;99.90
75430;DHT22;64127;51.488;5.462;2023-11-21T10:58:05;10.50;99.90
75430;DHT22;64127;51.488;5.462;2023-11-21T11:00:38;10.60;99.90
75430;DHT22;64127;51.488;5.462;2023-11-21T11:03:12;10.50;99.90
75430;DHT22;64127;51.488;5.462;2023-11-21T11:05:49;10.60;99.90
75430;DHT22;64127;51.488;5.462;2023-11-21T11:08:25;10.60;99.90
75430;DHT22;64127;51.488;5.462;2023-11-21T11:10:59;10.60;99.90
75430;DHT22;64127;51.488;5.462;2023-11-21T11:13:32;10.60;99.90
75430;DHT22;64127;51.488;5.462;2023-11-21T11:16:04;10.60;99.90
75430;DHT22;64127;51.488;5.462;2023-11-21T11:18:39;10.60;99.90
75430;DHT22;64127;51.488;5.462;2023-11-21T11:31:05;10.80;99.90
75430;DHT22;64127;51.488;5.462;2023-11-21T11:37:04;10.80;99.90
75430;DHT22;64127;51.488;5.462;2023-11-21T11:39:42;10.80;99.90
75430;DHT22;64127;51.488;5.462;2023-11-21T11:42:17;10.80;99.90
75430;DHT22;64127;51.488;5.462;2023-11-21T11:44:52;10.80;99.90
75430;DHT22;64127;51.488;5.462;2023-11-21T11:47:30;10.80;99.90
75430;DHT22;64127;51.488;5.462;2023-11-21T11:50:11;10.80;99.90
75430;DHT22;64127;51.488;5.462;2023-11-21T11:52:47;10.80;99.90
75430;DHT22;64127;51.488;5.462;2023-11-21T11:55:22;10.90;99.90
75430;DHT22;64127;51.488;5.462;2023-11-21T11:57:55;10.90;99.90
75430;DHT22;64127;51.488;5.462;2023-11-21T12:03:03;10.90;99.90
75430;DHT22;64127;51.488;5.462;2023-11-21T12:05:37;10.90;99.90
75430;DHT22;64127;51.488;5.462;2023-11-21T12:08:13;11.00;99.90
75430;DHT22;64127;51.488;5.462;2023-11-21T12:10:47;11.00;99.90
75430;DHT22;64127;51.488;5.462;2023-11-21T12:13:20;11.00;99.90
75430;DHT22;64127;51.488;5.462;2023-11-21T12:15:55;11.00;99.90
75430;DHT22;64127;51.488;5.462;2023-11-21T12:18:27;11.10;99.90
75430;DHT22;64127;51.488;5.462;2023-11-21T12:20:59;11.00;99.90
75430;DHT22;64127;51.488;5.462;2023-11-21T12:23:31;11.00;99.90
75430;DHT22;64127;51.488;5.462;2023-11-21T12:26:04;11.00;99.90
75430;DHT22;64127;51.488;5.462;2023-11-21T12:28:36;11.00;99.90
75430;DHT22;64127;51.488;5.462;2023-11-21T12:31:08;10.90;99.90
75430;DHT22;64127;51.488;5.462;2023-11-21T12:33:52;10.90;99.90
75430;DHT22;64127;51.488;5.462;2023-11-21T12:36:24;10.90;99.90
75430;DHT22;64127;51.488;5.462;2023-11-21T12:38:57;10.90;99.90
75430;DHT22;64127;51.488;5.462;2023-11-21T12:41:29;10.90;99.90
75430;DHT22;64127;51.488;5.462;2023-11-21T12:44:02;10.90;99.90
75430;DHT22;64127;51.488;5.462;2023-11-21T12:46:35;10.90;99.90
75430;DHT22;64127;51.488;5.462;2023-11-21T12:49:07;10.90;99.90
75430;DHT22;64127;51.488;5.462;2023-11-21T12:51:39;10.90;99.90
75430;DHT22;64127;51.488;5.462;2023-11-21T12:54:12;10.90;99.90
75430;DHT22;64127;51.488;5.462;2023-11-21T12:56:49;10.90;99.90
75430;DHT22;64127;51.488;5.462;2023-11-21T12:59:21;10.90;99.90
75430;DHT22;64127;51.488;5.462;2023-11-21T13:01:54;10.90;99.90
75430;DHT22;64127;51.488;5.462;2023-11-21T13:04:32;10.90;99.90
75430;DHT22;64127;51.488;5.462;2023-11-21T13:07:06;10.90;99.90
75430;DHT22;64127;51.488;5.462;2023-11-21T13:09:46;10.90;99.90
75430;DHT22;64127;51.488;5.462;2023-11-21T13:12:24;10.90;99.90
75430;DHT22;64127;51.488;5.462;2023-11-21T13:14:56;10.90;99.90
75430;DHT22;64127;51.488;5.462;2023-11-21T13:17:35;10.90;99.90
75430;DHT22;64127;51.488;5.462;2023-11-21T13:20:07;10.80;99.90
75430;DHT22;64127;51.488;5.462;2023-11-21T13:22:51;10.90;99.90
75430;DHT22;64127;51.488;5.462;2023-11-21T13:25:38;10.90;99.90
75430;DHT22;64127;51.488;5.462;2023-11-21T13:28:13;10.80;99.90
75430;DHT22;64127;51.488;5.462;2023-11-21T13:30:48;10.90;99.90
75430;DHT22;64127;51.488;5.462;2023-11-21T13:33:20;10.90;99.90
75430;DHT22;64127;51.488;5.462;2023-11-21T13:35:59;10.90;99.90
75430;DHT22;64127;51.488;5.462;2023-11-21T13:38:33;10.90;99.90
75430;DHT22;64127;51.488;5.462;2023-11-21T13:41:07;10.90;99.90
75430;DHT22;64127;51.488;5.462;2023-11-21T13:43:40;11.00;99.90
75430;DHT22;64127;51.488;5.462;2023-11-21T13:46:16;11.00;99.90
75430;DHT22;64127;51.488;5.462;2023-11-21T13:48:54;10.90;99.90
75430;DHT22;64127;51.488;5.462;2023-11-21T13:51:28;10.90;99.90
75430;DHT22;64127;51.488;5.462;2023-11-21T13:54:10;10.90;99.90
75430;DHT22;64127;51.488;5.462;2023-11-21T13:56:42;10.90;99.90
75430;DHT22;64127;51.488;5.462;2023-11-21T13:59:17;10.90;99.90
75430;DHT22;64127;51.488;5.462;2023-11-21T14:01:57;10.90;99.90
75430;DHT22;64127;51.488;5.462;2023-11-21T14:04:32;10.90;99.90
75430;DHT22;64127;51.488;5.462;2023-11-21T14:07:04;10.90;99.90
75430;DHT22;64127;51.488;5.462;2023-11-21T14:09:54;10.80;99.90
75430;DHT22;64127;51.488;5.462;2023-11-21T14:12:26;10.80;99.90
75430;DHT22;64127;51.488;5.462;2023-11-21T14:15:00;10.80;99.90
75430;DHT22;64127;51.488;5.462;2023-11-21T14:17:35;10.80;99.90
75430;DHT22;64127;51.488;5.462;2023-11-21T14:20:10;10.80;99.90
75430;DHT22;64127;51.488;5.462;2023-11-21T14:22:48;10.80;99.90
75430;DHT22;64127;51.488;5.462;2023-11-21T14:25:20;10.80;99.90
75430;DHT22;64127;51.488;5.462;2023-11-21T14:27:54;10.80;99.90
75430;DHT22;64127;51.488;5.462;2023-11-21T14:30:27;10.80;99.90
75430;DHT22;64127;51.488;5.462;2023-11-21T14:33:04;10.80;99.90
75430;DHT22;64127;51.488;5.462;2023-11-21T14:35:37;10.80;99.90
75430;DHT22;64127;51.488;5.462;2023-11-21T14:38:10;10.80;99.90
75430;DHT22;64127;51.488;5.462;2023-11-21T14:40:42;10.90;99.90
75430;DHT22;64127;51.488;5.462;2023-11-21T14:43:14;10.90;99.90
75430;DHT22;64127;51.488;5.462;2023-11-21T14:45:46;10.90;99.90
75430;DHT22;64127;51.488;5.462;2023-11-21T14:48:18;11.00;99.90
75430;DHT22;64127;51.488;5.462;2023-11-21T14:51:03;11.00;99.90
75430;DHT22;64127;51.488;5.462;2023-11-21T14:53:35;11.00;99.90
75430;DHT22;64127;51.488;5.462;2023-11-21T14:56:27;11.00;99.90
75430;DHT22;64127;51.488;5.462;2023-11-21T14:59:03;11.00;99.90
75430;DHT22;64127;51.488;5.462;2023-11-21T15:01:40;11.00;99.90
75430;DHT22;64127;51.488;5.462;2023-11-21T15:04:26;11.00;99.90
75430;DHT22;64127;51.488;5.462;2023-11-21T15:07:08;11.00;99.90
75430;DHT22;64127;51.488;5.462;2023-11-21T15:09:43;11.00;99.90
75430;DHT22;64127;51.488;5.462;2023-11-21T15:12:16;11.00;99.90
75430;DHT22;64127;51.488;5.462;2023-11-21T15:14:52;10.90;99.90
75430;DHT22;64127;51.488;5.462;2023-11-21T15:17:26;10.90;99.90
75430;DHT22;64127;51.488;5.462;2023-11-21T15:19:58;10.90;99.90
75430;DHT22;64127;51.488;5.462;2023-11-21T15:22:32;10.90;99.90
75430;DHT22;64127;51.488;5.462;2023-11-21T15:25:04;10.80;99.90
75430;DHT22;64127;51.488;5.462;2023-11-21T15:27:42;10.80;99.90
75430;DHT22;64127;51.488;5.462;2023-11-21T15:30:14;10.80;99.90
75430;DHT22;64127;51.488;5.462;2023-11-21T15:32:47;10.80;99.90
75430;DHT22;64127;51.488;5.462;2023-11-21T15:35:22;10.80;99.90
75430;DHT22;64127;51.488;5.462;2023-11-21T15:37:55;10.70;99.90
75430;DHT22;64127;51.488;5.462;2023-11-21T15:40:31;10.70;99.90
75430;DHT22;64127;51.488;5.462;2023-11-21T15:43:03;10.70;99.90
75430;DHT22;64127;51.488;5.462;2023-11-21T15:45:35;10.70;99.90
75430;DHT22;64127;51.488;5.462;2023-11-21T15:48:07;10.70;99.90
75430;DHT22;64127;51.488;5.462;2023-11-21T15:50:41;10.70;99.90
75430;DHT22;64127;51.488;5.462;2023-11-21T15:53:14;10.70;99.90
75430;DHT22;64127;51.488;5.462;2023-11-21T15:55:47;10.70;99.90
75430;DHT22;64127;51.488;5.462;2023-11-21T15:58:19;10.70;99.90
75430;DHT22;64127;51.488;5.462;2023-11-21T16:00:51;10.60;99.90
75430;DHT22;64127;51.488;5.462;2023-11-21T16:03:23;10.70;99.90
75430;DHT22;64127;51.488;5.462;2023-11-21T16:05:55;10.60;99.90
75430;DHT22;64127;51.488;5.462;2023-11-21T16:08:27;10.60;99.90
75430;DHT22;64127;51.488;5.462;2023-11-21T16:11:00;10.70;99.90
75430;DHT22;64127;51.488;5.462;2023-11-21T16:13:32;10.70;99.90
75430;DHT22;64127;51.488;5.462;2023-11-21T16:16:06;10.70;99.90
75430;DHT22;64127;51.488;5.462;2023-11-21T16:18:38;10.70;99.90
75430;DHT22;64127;51.488;5.462;2023-11-21T16:21:12;10.70;99.90
75430;DHT22;64127;51.488;5.462;2023-11-21T16:23:44;10.60;99.90
75430;DHT22;64127;51.488;5.462;2023-11-21T16:26:16;10.60;99.90
75430;DHT22;64127;51.488;5.462;2023-11-21T16:28:49;10.60;99.90
75430;DHT22;64127;51.488;5.462;2023-11-21T16:31:23;10.60;99.90
75430;DHT22;64127;51.488;5.462;2023-11-21T16:33:55;10.50;99.90